sensor_id;sensor_type;location;lat;lon;timestamp;P1;durP1;ratioP1;P2;durP2;ratioP2
7985;SDS011;4038;42.612;23.066;2023-03-01T00:01:22;22.33;;;20.83;;
7985;SDS011;4038;42.612;23.066;2023-03-01T00:03:48;22.90;;;21.23;;
7985;SDS011;4038;42.612;23.066;2023-03-01T00:06:15;23.60;;;22.00;;
7985;SDS011;4038;42.612;23.066;2023-03-01T00:08:41;23.40;;;21.80;;
7985;SDS011;4038;42.612;23.066;2023-03-01T00:11:12;23.43;;;21.83;;
7985;SDS011;4038;42.612;23.066;2023-03-01T00:13:39;23.13;;;21.53;;
7985;SDS011;4038;42.612;23.066;2023-03-01T00:16:07;21.80;;;20.40;;
7985;SDS011;4038;42.612;23.066;2023-03-01T00:18:34;21.90;;;20.40;;
7985;SDS011;4038;42.612;23.066;2023-03-01T00:20:59;22.30;;;20.80;;
7985;SDS011;4038;42.612;23.066;2023-03-01T00:23:25;22.73;;;21.23;;
7985;SDS011;4038;42.612;23.066;2023-03-01T00:25:51;21.43;;;19.97;;
7985;SDS011;4038;42.612;23.066;2023-03-01T00:28:17;22.73;;;21.13;;
7985;SDS011;4038;42.612;23.066;2023-03-01T00:30:42;21.90;;;20.50;;
7985;SDS011;4038;42.612;23.066;2023-03-01T00:33:08;21.20;;;19.80;;
7985;SDS011;4038;42.612;23.066;2023-03-01T00:35:33;20.65;;;19.35;;
7985;SDS011;4038;42.612;23.066;2023-03-01T00:37:59;21.77;;;20.23;;
7985;SDS011;4038;42.612;23.066;2023-03-01T00:40:26;22.30;;;20.90;;
7985;SDS011;4038;42.612;23.066;2023-03-01T00:42:52;22.70;;;20.97;;
7985;SDS011;4038;42.612;23.066;2023-03-01T00:45:18;22.43;;;20.93;;
7985;SDS011;4038;42.612;23.066;2023-03-01T00:47:43;22.07;;;20.57;;
7985;SDS011;4038;42.612;23.066;2023-03-01T00:50:09;21.60;;;20.20;;
7985;SDS011;4038;42.612;23.066;2023-03-01T00:52:36;22.20;;;20.70;;
7985;SDS011;4038;42.612;23.066;2023-03-01T00:55:02;21.73;;;20.23;;
7985;SDS011;4038;42.612;23.066;2023-03-01T00:57:27;21.50;;;20.10;;
7985;SDS011;4038;42.612;23.066;2023-03-01T00:59:53;21.97;;;20.53;;
7985;SDS011;4038;42.612;23.066;2023-03-01T01:02:19;21.50;;;20.03;;
7985;SDS011;4038;42.612;23.066;2023-03-01T01:04:45;22.13;;;20.73;;
7985;SDS011;4038;42.612;23.066;2023-03-01T01:07:11;22.90;;;21.37;;
7985;SDS011;4038;42.612;23.066;2023-03-01T01:09:37;22.00;;;20.37;;
7985;SDS011;4038;42.612;23.066;2023-03-01T01:12:03;22.27;;;20.77;;
7985;SDS011;4038;42.612;23.066;2023-03-01T01:14:29;21.37;;;19.87;;
7985;SDS011;4038;42.612;23.066;2023-03-01T01:16:55;21.50;;;20.10;;
7985;SDS011;4038;42.612;23.066;2023-03-01T01:19:20;22.23;;;20.83;;
7985;SDS011;4038;42.612;23.066;2023-03-01T01:21:46;23.33;;;21.63;;
7985;SDS011;4038;42.612;23.066;2023-03-01T01:24:13;22.50;;;20.90;;
7985;SDS011;4038;42.612;23.066;2023-03-01T01:26:39;23.57;;;21.97;;
7985;SDS011;4038;42.612;23.066;2023-03-01T01:29:05;22.43;;;20.93;;
7985;SDS011;4038;42.612;23.066;2023-03-01T01:31:32;22.30;;;20.70;;
7985;SDS011;4038;42.612;23.066;2023-03-01T01:34:00;23.60;;;21.70;;
7985;SDS011;4038;42.612;23.066;2023-03-01T01:36:26;23.07;;;21.40;;
7985;SDS011;4038;42.612;23.066;2023-03-01T01:38:52;23.77;;;22.00;;
7985;SDS011;4038;42.612;23.066;2023-03-01T01:41:18;22.10;;;20.40;;
7985;SDS011;4038;42.612;23.066;2023-03-01T01:43:46;21.50;;;19.80;;
7985;SDS011;4038;42.612;23.066;2023-03-01T01:48:54;22.47;;;20.97;;
7985;SDS011;4038;42.612;23.066;2023-03-01T01:51:27;23.20;;;21.60;;
7985;SDS011;4038;42.612;23.066;2023-03-01T01:54:03;23.00;;;21.43;;
7985;SDS011;4038;42.612;23.066;2023-03-01T01:56:33;22.87;;;21.37;;
7985;SDS011;4038;42.612;23.066;2023-03-01T01:58:59;22.60;;;21.10;;
7985;SDS011;4038;42.612;23.066;2023-03-01T02:01:26;23.03;;;21.43;;
7985;SDS011;4038;42.612;23.066;2023-03-01T02:03:52;23.37;;;21.80;;
7985;SDS011;4038;42.612;23.066;2023-03-01T02:08:53;22.70;;;21.20;;
7985;SDS011;4038;42.612;23.066;2023-03-01T02:11:24;22.80;;;21.23;;
7985;SDS011;4038;42.612;23.066;2023-03-01T02:13:51;22.53;;;21.03;;
7985;SDS011;4038;42.612;23.066;2023-03-01T02:16:18;22.55;;;21.08;;
7985;SDS011;4038;42.612;23.066;2023-03-01T02:18:44;22.27;;;20.67;;
7985;SDS011;4038;42.612;23.066;2023-03-01T02:23:51;23.77;;;22.17;;
7985;SDS011;4038;42.612;23.066;2023-03-01T02:26:24;24.33;;;22.73;;
7985;SDS011;4038;42.612;23.066;2023-03-01T02:29:10;22.93;;;21.23;;
7985;SDS011;4038;42.612;23.066;2023-03-01T02:31:35;22.70;;;21.20;;
7985;SDS011;4038;42.612;23.066;2023-03-01T02:34:08;22.67;;;20.97;;
7985;SDS011;4038;42.612;23.066;2023-03-01T02:39:41;22.23;;;20.73;;
7985;SDS011;4038;42.612;23.066;2023-03-01T02:42:14;22.30;;;20.87;;
7985;SDS011;4038;42.612;23.066;2023-03-01T02:44:44;21.90;;;20.50;;
7985;SDS011;4038;42.612;23.066;2023-03-01T02:47:10;21.73;;;20.23;;
7985;SDS011;4038;42.612;23.066;2023-03-01T02:49:36;22.50;;;21.10;;
7985;SDS011;4038;42.612;23.066;2023-03-01T02:57:31;20.67;;;19.27;;
7985;SDS011;4038;42.612;23.066;2023-03-01T02:59:59;21.63;;;20.23;;
7985;SDS011;4038;42.612;23.066;2023-03-01T03:02:32;21.70;;;20.30;;
7985;SDS011;4038;42.612;23.066;2023-03-01T03:07:36;20.43;;;19.13;;
7985;SDS011;4038;42.612;23.066;2023-03-01T03:10:04;19.90;;;18.70;;
7985;SDS011;4038;42.612;23.066;2023-03-01T03:12:32;20.70;;;19.45;;
7985;SDS011;4038;42.612;23.066;2023-03-01T03:14:57;19.97;;;18.67;;
7985;SDS011;4038;42.612;23.066;2023-03-01T03:17:22;19.90;;;18.60;;
7985;SDS011;4038;42.612;23.066;2023-03-01T03:19:48;20.57;;;19.27;;
7985;SDS011;4038;42.612;23.066;2023-03-01T03:22:14;20.37;;;19.07;;
7985;SDS011;4038;42.612;23.066;2023-03-01T03:24:39;20.30;;;19.00;;
7985;SDS011;4038;42.612;23.066;2023-03-01T03:27:05;19.93;;;18.63;;
7985;SDS011;4038;42.612;23.066;2023-03-01T03:29:32;19.80;;;18.50;;
7985;SDS011;4038;42.612;23.066;2023-03-01T03:31:57;20.43;;;19.13;;
7985;SDS011;4038;42.612;23.066;2023-03-01T03:34:23;20.47;;;18.97;;
7985;SDS011;4038;42.612;23.066;2023-03-01T03:36:52;20.70;;;19.40;;
7985;SDS011;4038;42.612;23.066;2023-03-01T03:39:22;20.23;;;18.92;;
7985;SDS011;4038;42.612;23.066;2023-03-01T03:41:48;22.87;;;21.17;;
7985;SDS011;4038;42.612;23.066;2023-03-01T03:44:13;20.20;;;18.90;;
7985;SDS011;4038;42.612;23.066;2023-03-01T03:46:39;20.70;;;19.20;;
7985;SDS011;4038;42.612;23.066;2023-03-01T03:49:04;20.60;;;19.30;;
7985;SDS011;4038;42.612;23.066;2023-03-01T03:51:29;20.20;;;18.90;;
7985;SDS011;4038;42.612;23.066;2023-03-01T03:53:55;20.30;;;19.00;;
7985;SDS011;4038;42.612;23.066;2023-03-01T03:56:20;20.67;;;19.37;;
7985;SDS011;4038;42.612;23.066;2023-03-01T03:58:51;20.50;;;19.20;;
7985;SDS011;4038;42.612;23.066;2023-03-01T04:01:17;20.03;;;18.73;;
7985;SDS011;4038;42.612;23.066;2023-03-01T04:03:42;19.90;;;18.60;;
7985;SDS011;4038;42.612;23.066;2023-03-01T04:06:11;20.57;;;19.27;;
7985;SDS011;4038;42.612;23.066;2023-03-01T04:08:38;20.50;;;19.20;;
7985;SDS011;4038;42.612;23.066;2023-03-01T04:11:05;20.73;;;19.43;;
7985;SDS011;4038;42.612;23.066;2023-03-01T04:13:50;20.67;;;19.37;;
7985;SDS011;4038;42.612;23.066;2023-03-01T04:16:17;20.57;;;19.27;;
7985;SDS011;4038;42.612;23.066;2023-03-01T04:18:43;21.23;;;19.77;;
7985;SDS011;4038;42.612;23.066;2023-03-01T04:21:09;21.30;;;19.83;;
7985;SDS011;4038;42.612;23.066;2023-03-01T04:23:36;20.97;;;19.67;;
7985;SDS011;4038;42.612;23.066;2023-03-01T04:26:02;20.87;;;19.57;;
7985;SDS011;4038;42.612;23.066;2023-03-01T04:28:29;21.10;;;19.80;;
7985;SDS011;4038;42.612;23.066;2023-03-01T04:30:58;21.13;;;19.83;;
7985;SDS011;4038;42.612;23.066;2023-03-01T04:33:24;21.37;;;19.87;;
7985;SDS011;4038;42.612;23.066;2023-03-01T04:35:50;21.30;;;20.00;;
7985;SDS011;4038;42.612;23.066;2023-03-01T04:38:17;21.40;;;19.90;;
7985;SDS011;4038;42.612;23.066;2023-03-01T04:40:43;20.93;;;19.53;;
7985;SDS011;4038;42.612;23.066;2023-03-01T04:43:09;21.93;;;20.53;;
7985;SDS011;4038;42.612;23.066;2023-03-01T04:45:35;20.67;;;19.27;;
7985;SDS011;4038;42.612;23.066;2023-03-01T04:48:01;20.10;;;18.70;;
7985;SDS011;4038;42.612;23.066;2023-03-01T04:50:28;20.73;;;19.33;;
7985;SDS011;4038;42.612;23.066;2023-03-01T04:52:54;20.60;;;19.30;;
7985;SDS011;4038;42.612;23.066;2023-03-01T04:55:23;20.80;;;19.40;;
7985;SDS011;4038;42.612;23.066;2023-03-01T04:57:50;21.07;;;19.67;;
7985;SDS011;4038;42.612;23.066;2023-03-01T05:00:16;21.03;;;19.53;;
7985;SDS011;4038;42.612;23.066;2023-03-01T05:05:21;20.97;;;19.50;;
7985;SDS011;4038;42.612;23.066;2023-03-01T05:07:50;20.90;;;19.40;;
7985;SDS011;4038;42.612;23.066;2023-03-01T05:10:26;20.47;;;19.07;;
7985;SDS011;4038;42.612;23.066;2023-03-01T05:12:54;20.70;;;19.30;;
7985;SDS011;4038;42.612;23.066;2023-03-01T05:15:22;20.80;;;19.40;;
7985;SDS011;4038;42.612;23.066;2023-03-01T05:17:50;21.20;;;19.70;;
7985;SDS011;4038;42.612;23.066;2023-03-01T05:20:16;20.67;;;19.27;;
7985;SDS011;4038;42.612;23.066;2023-03-01T05:22:42;20.57;;;19.17;;
7985;SDS011;4038;42.612;23.066;2023-03-01T05:25:07;20.63;;;19.23;;
7985;SDS011;4038;42.612;23.066;2023-03-01T05:27:33;19.83;;;18.53;;
7985;SDS011;4038;42.612;23.066;2023-03-01T05:30:00;20.20;;;18.80;;
7985;SDS011;4038;42.612;23.066;2023-03-01T05:32:38;20.57;;;19.13;;
7985;SDS011;4038;42.612;23.066;2023-03-01T05:35:11;20.30;;;18.97;;
7985;SDS011;4038;42.612;23.066;2023-03-01T05:37:41;20.40;;;18.70;;
7985;SDS011;4038;42.612;23.066;2023-03-01T05:40:09;20.00;;;18.70;;
7985;SDS011;4038;42.612;23.066;2023-03-01T05:42:40;19.83;;;18.43;;
7985;SDS011;4038;42.612;23.066;2023-03-01T05:45:08;20.43;;;19.03;;
7985;SDS011;4038;42.612;23.066;2023-03-01T05:47:38;20.10;;;18.70;;
7985;SDS011;4038;42.612;23.066;2023-03-01T05:50:14;20.03;;;18.73;;
7985;SDS011;4038;42.612;23.066;2023-03-01T05:52:44;19.80;;;18.40;;
7985;SDS011;4038;42.612;23.066;2023-03-01T05:55:11;20.00;;;18.63;;
7985;SDS011;4038;42.612;23.066;2023-03-01T05:57:36;19.63;;;18.27;;
7985;SDS011;4038;42.612;23.066;2023-03-01T06:00:02;20.40;;;19.00;;
7985;SDS011;4038;42.612;23.066;2023-03-01T06:02:28;20.87;;;19.53;;
7985;SDS011;4038;42.612;23.066;2023-03-01T06:04:54;20.07;;;18.77;;
7985;SDS011;4038;42.612;23.066;2023-03-01T06:07:20;19.77;;;18.47;;
7985;SDS011;4038;42.612;23.066;2023-03-01T06:09:45;19.83;;;18.47;;
7985;SDS011;4038;42.612;23.066;2023-03-01T06:12:10;20.20;;;18.83;;
7985;SDS011;4038;42.612;23.066;2023-03-01T06:14:36;20.00;;;18.70;;
7985;SDS011;4038;42.612;23.066;2023-03-01T06:17:01;20.87;;;19.47;;
7985;SDS011;4038;42.612;23.066;2023-03-01T06:19:27;20.17;;;18.77;;
7985;SDS011;4038;42.612;23.066;2023-03-01T06:21:52;21.27;;;19.77;;
7985;SDS011;4038;42.612;23.066;2023-03-01T06:24:18;21.85;;;20.45;;
7985;SDS011;4038;42.612;23.066;2023-03-01T06:26:43;22.90;;;21.30;;
7985;SDS011;4038;42.612;23.066;2023-03-01T06:29:08;23.23;;;21.63;;
7985;SDS011;4038;42.612;23.066;2023-03-01T06:31:34;22.23;;;20.73;;
7985;SDS011;4038;42.612;23.066;2023-03-01T06:33:59;22.87;;;21.20;;
7985;SDS011;4038;42.612;23.066;2023-03-01T06:36:25;23.63;;;22.13;;
7985;SDS011;4038;42.612;23.066;2023-03-01T06:38:50;23.27;;;21.67;;
7985;SDS011;4038;42.612;23.066;2023-03-01T06:41:16;23.07;;;21.47;;
7985;SDS011;4038;42.612;23.066;2023-03-01T06:43:41;23.40;;;21.80;;
7985;SDS011;4038;42.612;23.066;2023-03-01T06:46:06;22.90;;;21.30;;
7985;SDS011;4038;42.612;23.066;2023-03-01T06:48:32;22.27;;;20.77;;
7985;SDS011;4038;42.612;23.066;2023-03-01T06:50:59;22.77;;;21.17;;
7985;SDS011;4038;42.612;23.066;2023-03-01T06:53:26;22.30;;;20.70;;
7985;SDS011;4038;42.612;23.066;2023-03-01T06:55:58;23.13;;;21.57;;
7985;SDS011;4038;42.612;23.066;2023-03-01T06:58:25;23.63;;;22.03;;
7985;SDS011;4038;42.612;23.066;2023-03-01T07:00:51;22.50;;;21.00;;
7985;SDS011;4038;42.612;23.066;2023-03-01T07:03:17;23.02;;;21.42;;
7985;SDS011;4038;42.612;23.066;2023-03-01T07:05:42;23.30;;;21.70;;
7985;SDS011;4038;42.612;23.066;2023-03-01T07:08:08;23.40;;;21.80;;
7985;SDS011;4038;42.612;23.066;2023-03-01T07:10:33;23.20;;;21.60;;
7985;SDS011;4038;42.612;23.066;2023-03-01T07:12:59;23.10;;;21.50;;
7985;SDS011;4038;42.612;23.066;2023-03-01T07:15:25;22.93;;;21.43;;
7985;SDS011;4038;42.612;23.066;2023-03-01T07:17:51;23.10;;;21.50;;
7985;SDS011;4038;42.612;23.066;2023-03-01T07:20:20;22.73;;;21.07;;
7985;SDS011;4038;42.612;23.066;2023-03-01T07:22:50;23.02;;;21.42;;
7985;SDS011;4038;42.612;23.066;2023-03-01T07:25:19;23.73;;;22.13;;
7985;SDS011;4038;42.612;23.066;2023-03-01T07:27:48;23.50;;;21.90;;
7985;SDS011;4038;42.612;23.066;2023-03-01T07:30:17;23.20;;;21.60;;
7985;SDS011;4038;42.612;23.066;2023-03-01T07:32:43;22.97;;;21.40;;
7985;SDS011;4038;42.612;23.066;2023-03-01T07:35:08;23.87;;;22.17;;
7985;SDS011;4038;42.612;23.066;2023-03-01T07:37:34;24.50;;;22.90;;
7985;SDS011;4038;42.612;23.066;2023-03-01T07:39:59;25.77;;;23.97;;
7985;SDS011;4038;42.612;23.066;2023-03-01T07:42:24;23.87;;;22.07;;
7985;SDS011;4038;42.612;23.066;2023-03-01T07:44:50;24.07;;;22.47;;
7985;SDS011;4038;42.612;23.066;2023-03-01T07:47:15;23.87;;;22.17;;
7985;SDS011;4038;42.612;23.066;2023-03-01T07:49:41;22.60;;;21.10;;
7985;SDS011;4038;42.612;23.066;2023-03-01T07:52:06;24.13;;;22.13;;
7985;SDS011;4038;42.612;23.066;2023-03-01T07:54:32;24.30;;;22.70;;
7985;SDS011;4038;42.612;23.066;2023-03-01T07:56:57;23.70;;;22.17;;
7985;SDS011;4038;42.612;23.066;2023-03-01T07:59:22;25.03;;;23.33;;
7985;SDS011;4038;42.612;23.066;2023-03-01T08:01:53;24.37;;;22.67;;
7985;SDS011;4038;42.612;23.066;2023-03-01T08:04:20;24.20;;;22.60;;
7985;SDS011;4038;42.612;23.066;2023-03-01T08:06:45;25.80;;;24.10;;
7985;SDS011;4038;42.612;23.066;2023-03-01T08:09:10;25.77;;;24.07;;
7985;SDS011;4038;42.612;23.066;2023-03-01T08:11:36;25.17;;;23.57;;
7985;SDS011;4038;42.612;23.066;2023-03-01T08:14:01;24.60;;;23.10;;
7985;SDS011;4038;42.612;23.066;2023-03-01T08:16:27;24.50;;;22.90;;
7985;SDS011;4038;42.612;23.066;2023-03-01T08:18:52;25.03;;;23.33;;
7985;SDS011;4038;42.612;23.066;2023-03-01T08:21:19;24.33;;;22.67;;
7985;SDS011;4038;42.612;23.066;2023-03-01T08:23:44;24.37;;;22.67;;
7985;SDS011;4038;42.612;23.066;2023-03-01T08:26:14;24.27;;;22.57;;
7985;SDS011;4038;42.612;23.066;2023-03-01T08:28:42;24.90;;;23.20;;
7985;SDS011;4038;42.612;23.066;2023-03-01T08:31:17;24.17;;;22.58;;
7985;SDS011;4038;42.612;23.066;2023-03-01T08:33:59;24.53;;;22.73;;
7985;SDS011;4038;42.612;23.066;2023-03-01T08:36:27;23.30;;;21.70;;
7985;SDS011;4038;42.612;23.066;2023-03-01T08:39:03;24.23;;;22.23;;
7985;SDS011;4038;42.612;23.066;2023-03-01T08:41:29;24.30;;;22.60;;
7985;SDS011;4038;42.612;23.066;2023-03-01T08:43:55;24.27;;;22.58;;
7985;SDS011;4038;42.612;23.066;2023-03-01T08:46:27;23.60;;;21.83;;
7985;SDS011;4038;42.612;23.066;2023-03-01T08:48:53;23.73;;;22.03;;
7985;SDS011;4038;42.612;23.066;2023-03-01T08:51:21;24.43;;;22.73;;
7985;SDS011;4038;42.612;23.066;2023-03-01T08:53:48;22.90;;;21.27;;
7985;SDS011;4038;42.612;23.066;2023-03-01T08:56:14;23.67;;;21.93;;
7985;SDS011;4038;42.612;23.066;2023-03-01T08:58:45;23.93;;;22.23;;
7985;SDS011;4038;42.612;23.066;2023-03-01T09:01:12;24.80;;;23.10;;
7985;SDS011;4038;42.612;23.066;2023-03-01T09:03:43;23.63;;;21.73;;
7985;SDS011;4038;42.612;23.066;2023-03-01T09:06:10;23.83;;;22.03;;
7985;SDS011;4038;42.612;23.066;2023-03-01T09:08:46;24.35;;;22.65;;
7985;SDS011;4038;42.612;23.066;2023-03-01T09:11:14;24.08;;;22.40;;
7985;SDS011;4038;42.612;23.066;2023-03-01T09:13:42;25.42;;;23.48;;
7985;SDS011;4038;42.612;23.066;2023-03-01T09:16:09;24.95;;;23.15;;
7985;SDS011;4038;42.612;23.066;2023-03-01T09:18:37;25.17;;;23.27;;
7985;SDS011;4038;42.612;23.066;2023-03-01T09:23:36;25.98;;;24.08;;
7985;SDS011;4038;42.612;23.066;2023-03-01T09:26:04;26.80;;;24.93;;
7985;SDS011;4038;42.612;23.066;2023-03-01T09:28:34;23.73;;;21.98;;
7985;SDS011;4038;42.612;23.066;2023-03-01T09:31:00;24.85;;;23.10;;
7985;SDS011;4038;42.612;23.066;2023-03-01T09:33:27;25.02;;;23.23;;
7985;SDS011;4038;42.612;23.066;2023-03-01T09:36:01;24.02;;;22.40;;
7985;SDS011;4038;42.612;23.066;2023-03-01T09:38:28;25.48;;;23.67;;
7985;SDS011;4038;42.612;23.066;2023-03-01T09:40:55;24.92;;;22.83;;
7985;SDS011;4038;42.612;23.066;2023-03-01T09:46:29;24.50;;;22.73;;
7985;SDS011;4038;42.612;23.066;2023-03-01T09:49:09;22.90;;;21.30;;
7985;SDS011;4038;42.612;23.066;2023-03-01T09:51:42;24.05;;;22.45;;
7985;SDS011;4038;42.612;23.066;2023-03-01T09:54:13;24.80;;;23.00;;
7985;SDS011;4038;42.612;23.066;2023-03-01T09:56:44;24.60;;;22.63;;
7985;SDS011;4038;42.612;23.066;2023-03-01T09:59:57;23.73;;;22.02;;
7985;SDS011;4038;42.612;23.066;2023-03-01T10:10:38;24.40;;;22.70;;
7985;SDS011;4038;42.612;23.066;2023-03-01T10:13:29;25.08;;;23.05;;
7985;SDS011;4038;42.612;23.066;2023-03-01T10:16:19;25.10;;;23.30;;
7985;SDS011;4038;42.612;23.066;2023-03-01T10:18:52;25.23;;;23.38;;
7985;SDS011;4038;42.612;23.066;2023-03-01T10:21:20;24.13;;;22.48;;
7985;SDS011;4038;42.612;23.066;2023-03-01T10:23:46;24.77;;;22.98;;
7985;SDS011;4038;42.612;23.066;2023-03-01T10:29:18;25.95;;;24.05;;
7985;SDS011;4038;42.612;23.066;2023-03-01T10:31:50;24.38;;;22.58;;
7985;SDS011;4038;42.612;23.066;2023-03-01T10:34:19;26.52;;;24.58;;
7985;SDS011;4038;42.612;23.066;2023-03-01T10:36:55;26.35;;;24.17;;
7985;SDS011;4038;42.612;23.066;2023-03-01T10:39:23;25.70;;;23.90;;
7985;SDS011;4038;42.612;23.066;2023-03-01T10:44:38;26.42;;;24.52;;
7985;SDS011;4038;42.612;23.066;2023-03-01T10:47:08;26.40;;;24.10;;
7985;SDS011;4038;42.612;23.066;2023-03-01T10:49:39;25.75;;;23.85;;
7985;SDS011;4038;42.612;23.066;2023-03-01T10:52:18;26.10;;;24.05;;
7985;SDS011;4038;42.612;23.066;2023-03-01T10:54:59;25.88;;;24.08;;
7985;SDS011;4038;42.612;23.066;2023-03-01T10:57:28;24.98;;;22.98;;
7985;SDS011;4038;42.612;23.066;2023-03-01T11:00:18;25.90;;;23.85;;
7985;SDS011;4038;42.612;23.066;2023-03-01T11:03:11;26.88;;;24.77;;
7985;SDS011;4038;42.612;23.066;2023-03-01T11:05:50;25.05;;;22.98;;
7985;SDS011;4038;42.612;23.066;2023-03-01T11:11:06;28.88;;;26.45;;
7985;SDS011;4038;42.612;23.066;2023-03-01T11:13:32;26.63;;;24.40;;
7985;SDS011;4038;42.612;23.066;2023-03-01T11:16:00;25.95;;;23.75;;
7985;SDS011;4038;42.612;23.066;2023-03-01T11:18:25;27.50;;;25.35;;
7985;SDS011;4038;42.612;23.066;2023-03-01T11:20:54;24.48;;;22.88;;
7985;SDS011;4038;42.612;23.066;2023-03-01T11:23:21;24.23;;;22.40;;
7985;SDS011;4038;42.612;23.066;2023-03-01T11:25:49;25.85;;;24.05;;
7985;SDS011;4038;42.612;23.066;2023-03-01T11:28:19;26.25;;;24.35;;
7985;SDS011;4038;42.612;23.066;2023-03-01T11:30:57;25.08;;;23.30;;
7985;SDS011;4038;42.612;23.066;2023-03-01T11:33:39;24.58;;;22.75;;
7985;SDS011;4038;42.612;23.066;2023-03-01T11:38:50;25.65;;;23.80;;
7985;SDS011;4038;42.612;23.066;2023-03-01T11:41:19;23.80;;;22.15;;
7985;SDS011;4038;42.612;23.066;2023-03-01T11:43:59;25.35;;;23.52;;
7985;SDS011;4038;42.612;23.066;2023-03-01T11:51:53;24.67;;;22.95;;
7985;SDS011;4038;42.612;23.066;2023-03-01T12:21:57;28.80;;;26.23;;
7985;SDS011;4038;42.612;23.066;2023-03-01T12:24:48;27.85;;;25.75;;
7985;SDS011;4038;42.612;23.066;2023-03-01T12:50:17;26.13;;;24.02;;
7985;SDS011;4038;42.612;23.066;2023-03-01T12:52:52;26.35;;;24.45;;
7985;SDS011;4038;42.612;23.066;2023-03-01T13:06:25;25.92;;;24.13;;
7985;SDS011;4038;42.612;23.066;2023-03-01T13:09:17;23.92;;;22.10;;
7985;SDS011;4038;42.612;23.066;2023-03-01T13:12:01;26.35;;;24.23;;
7985;SDS011;4038;42.612;23.066;2023-03-01T13:16:58;25.25;;;23.55;;
7985;SDS011;4038;42.612;23.066;2023-03-01T13:21:51;25.52;;;23.75;;
7985;SDS011;4038;42.612;23.066;2023-03-01T13:24:29;25.73;;;23.92;;
7985;SDS011;4038;42.612;23.066;2023-03-01T13:34:46;24.75;;;22.88;;
7985;SDS011;4038;42.612;23.066;2023-03-01T13:37:19;23.98;;;22.25;;
7985;SDS011;4038;42.612;23.066;2023-03-01T13:39:47;24.23;;;22.52;;
7985;SDS011;4038;42.612;23.066;2023-03-01T13:44:59;23.13;;;21.33;;
7985;SDS011;4038;42.612;23.066;2023-03-01T13:47:25;23.48;;;21.77;;
7985;SDS011;4038;42.612;23.066;2023-03-01T13:49:56;24.88;;;23.00;;
7985;SDS011;4038;42.612;23.066;2023-03-01T13:55:16;23.60;;;21.70;;
7985;SDS011;4038;42.612;23.066;2023-03-01T13:57:49;23.85;;;22.05;;
7985;SDS011;4038;42.612;23.066;2023-03-01T14:03:11;24.50;;;22.75;;
7985;SDS011;4038;42.612;23.066;2023-03-01T14:05:38;25.55;;;23.75;;
7985;SDS011;4038;42.612;23.066;2023-03-01T14:08:14;25.38;;;23.58;;
7985;SDS011;4038;42.612;23.066;2023-03-01T14:10:49;24.35;;;22.55;;
7985;SDS011;4038;42.612;23.066;2023-03-01T14:18:57;25.10;;;23.27;;
7985;SDS011;4038;42.612;23.066;2023-03-01T14:21:58;23.90;;;22.10;;
7985;SDS011;4038;42.612;23.066;2023-03-01T14:24:25;24.48;;;22.67;;
7985;SDS011;4038;42.612;23.066;2023-03-01T14:26:52;23.65;;;21.95;;
7985;SDS011;4038;42.612;23.066;2023-03-01T14:30:19;25.52;;;23.67;;
7985;SDS011;4038;42.612;23.066;2023-03-01T14:32:21;26.02;;;24.23;;
7985;SDS011;4038;42.612;23.066;2023-03-01T14:34:49;24.25;;;22.55;;
7985;SDS011;4038;42.612;23.066;2023-03-01T14:39:52;26.70;;;24.77;;
7985;SDS011;4038;42.612;23.066;2023-03-01T14:42:19;26.75;;;24.95;;
7985;SDS011;4038;42.612;23.066;2023-03-01T14:44:47;24.67;;;22.88;;
7985;SDS011;4038;42.612;23.066;2023-03-01T14:47:18;24.38;;;22.67;;
7985;SDS011;4038;42.612;23.066;2023-03-01T14:50:03;25.63;;;23.83;;
7985;SDS011;4038;42.612;23.066;2023-03-01T14:52:35;25.52;;;23.55;;
7985;SDS011;4038;42.612;23.066;2023-03-01T14:55:07;24.38;;;22.48;;
7985;SDS011;4038;42.612;23.066;2023-03-01T14:57:43;25.48;;;23.48;;
7985;SDS011;4038;42.612;23.066;2023-03-01T15:00:10;25.92;;;24.05;;
7985;SDS011;4038;42.612;23.066;2023-03-01T15:02:43;26.83;;;24.92;;
7985;SDS011;4038;42.612;23.066;2023-03-01T15:05:13;26.10;;;24.15;;
7985;SDS011;4038;42.612;23.066;2023-03-01T15:07:42;26.02;;;23.95;;
7985;SDS011;4038;42.612;23.066;2023-03-01T15:10:17;27.33;;;25.42;;
7985;SDS011;4038;42.612;23.066;2023-03-01T15:12:46;26.95;;;24.98;;
7985;SDS011;4038;42.612;23.066;2023-03-01T15:18:05;26.80;;;24.67;;
7985;SDS011;4038;42.612;23.066;2023-03-01T15:20:38;27.17;;;25.08;;
7985;SDS011;4038;42.612;23.066;2023-03-01T15:23:04;27.05;;;24.88;;
7985;SDS011;4038;42.612;23.066;2023-03-01T15:25:30;26.45;;;24.60;;
7985;SDS011;4038;42.612;23.066;2023-03-01T15:27:58;27.60;;;25.70;;
7985;SDS011;4038;42.612;23.066;2023-03-01T15:30:26;27.55;;;25.60;;
7985;SDS011;4038;42.612;23.066;2023-03-01T15:35:53;27.40;;;25.27;;
7985;SDS011;4038;42.612;23.066;2023-03-01T15:41:23;26.25;;;24.25;;
7985;SDS011;4038;42.612;23.066;2023-03-01T15:43:51;28.23;;;26.33;;
7985;SDS011;4038;42.612;23.066;2023-03-01T15:46:31;27.55;;;25.65;;
7985;SDS011;4038;42.612;23.066;2023-03-01T15:49:03;27.98;;;26.15;;
7985;SDS011;4038;42.612;23.066;2023-03-01T15:51:34;30.77;;;28.27;;
7985;SDS011;4038;42.612;23.066;2023-03-01T15:54:06;31.27;;;28.80;;
7985;SDS011;4038;42.612;23.066;2023-03-01T15:56:38;27.07;;;25.17;;
7985;SDS011;4038;42.612;23.066;2023-03-01T15:59:04;28.03;;;26.03;;
7985;SDS011;4038;42.612;23.066;2023-03-01T16:01:30;28.17;;;26.07;;
7985;SDS011;4038;42.612;23.066;2023-03-01T16:03:59;26.57;;;24.67;;
7985;SDS011;4038;42.612;23.066;2023-03-01T16:06:24;28.20;;;26.10;;
7985;SDS011;4038;42.612;23.066;2023-03-01T16:08:50;28.30;;;26.00;;
7985;SDS011;4038;42.612;23.066;2023-03-01T16:11:16;26.03;;;24.13;;
7985;SDS011;4038;42.612;23.066;2023-03-01T16:13:44;28.00;;;26.10;;
7985;SDS011;4038;42.612;23.066;2023-03-01T16:16:10;25.25;;;23.52;;
7985;SDS011;4038;42.612;23.066;2023-03-01T16:18:47;26.00;;;24.20;;
7985;SDS011;4038;42.612;23.066;2023-03-01T16:21:18;25.03;;;23.03;;
7985;SDS011;4038;42.612;23.066;2023-03-01T16:23:46;25.33;;;23.53;;
7985;SDS011;4038;42.612;23.066;2023-03-01T16:26:12;26.00;;;24.20;;
7985;SDS011;4038;42.612;23.066;2023-03-01T16:28:39;25.37;;;23.57;;
7985;SDS011;4038;42.612;23.066;2023-03-01T16:31:05;25.77;;;23.77;;
7985;SDS011;4038;42.612;23.066;2023-03-01T16:33:31;26.60;;;24.50;;
7985;SDS011;4038;42.612;23.066;2023-03-01T16:35:57;25.63;;;23.77;;
7985;SDS011;4038;42.612;23.066;2023-03-01T16:38:24;25.45;;;23.48;;
7985;SDS011;4038;42.612;23.066;2023-03-01T16:40:51;25.63;;;23.60;;
7985;SDS011;4038;42.612;23.066;2023-03-01T16:43:17;25.70;;;23.80;;
7985;SDS011;4038;42.612;23.066;2023-03-01T16:45:42;25.27;;;23.47;;
7985;SDS011;4038;42.612;23.066;2023-03-01T16:48:09;25.87;;;23.87;;
7985;SDS011;4038;42.612;23.066;2023-03-01T16:50:35;25.67;;;23.67;;
7985;SDS011;4038;42.612;23.066;2023-03-01T16:53:01;25.47;;;23.47;;
7985;SDS011;4038;42.612;23.066;2023-03-01T16:55:27;27.20;;;25.20;;
7985;SDS011;4038;42.612;23.066;2023-03-01T16:57:52;28.27;;;26.27;;
7985;SDS011;4038;42.612;23.066;2023-03-01T17:00:18;25.20;;;23.30;;
7985;SDS011;4038;42.612;23.066;2023-03-01T17:02:44;26.53;;;24.23;;
7985;SDS011;4038;42.612;23.066;2023-03-01T17:05:09;29.93;;;27.33;;
7985;SDS011;4038;42.612;23.066;2023-03-01T17:07:36;24.67;;;22.77;;
7985;SDS011;4038;42.612;23.066;2023-03-01T17:10:06;27.23;;;25.00;;
7985;SDS011;4038;42.612;23.066;2023-03-01T17:12:35;25.43;;;23.43;;
7985;SDS011;4038;42.612;23.066;2023-03-01T17:15:01;26.87;;;24.77;;